createdAt,value
2022-10-30T00:02:43.644Z,4.20
2022-10-30T00:05:28.874Z,19.88
2022-10-30T00:08:16.551Z,12.40
2022-10-30T00:11:10.298Z,12.85
2022-10-30T00:13:55.722Z,9.05
2022-10-30T00:16:41.105Z,14.13
2022-10-30T00:19:26.561Z,12.68
2022-10-30T00:22:12.053Z,6.60
2022-10-30T00:24:57.410Z,6.88
2022-10-30T00:27:42.858Z,6.65
2022-10-30T00:30:28.236Z,19.30
2022-10-30T00:33:13.729Z,7.38
2022-10-30T00:35:59.670Z,20.67
2022-10-30T00:38:45.020Z,12.15
2022-10-30T00:41:30.403Z,11.10
2022-10-30T00:44:40.677Z,13.93
2022-10-30T00:47:34.836Z,8.57
2022-10-30T00:50:20.368Z,10.68
2022-10-30T00:53:14.176Z,12.55
2022-10-30T00:56:05.684Z,13.57
2022-10-30T00:58:57.435Z,14.20
2022-10-30T01:01:46.833Z,12.52
2022-10-30T01:04:36.210Z,15.32
2022-10-30T01:07:21.819Z,9.35
2022-10-30T01:10:08.888Z,9.85
2022-10-30T01:12:57.537Z,10.30
2022-10-30T01:15:56.501Z,5.30
2022-10-30T01:18:56.208Z,7.07
2022-10-30T01:21:54.396Z,16.65
2022-10-30T01:24:39.721Z,7.93
2022-10-30T01:28:04.074Z,12.40
2022-10-30T01:31:27.511Z,6.68
2022-10-30T01:34:51.536Z,15.30
2022-10-30T01:37:54.874Z,9.60
2022-10-30T01:40:45.314Z,9.55
2022-10-30T01:43:32.457Z,12.07
2022-10-30T01:46:56.499Z,11.55
2022-10-30T01:50:04.378Z,13.30
2022-10-30T01:52:56.109Z,12.70
2022-10-30T01:55:52.147Z,7.88
2022-10-30T01:58:50.753Z,13.40
2022-10-30T02:01:38.360Z,13.07
2022-10-30T02:04:25.601Z,10.40
2022-10-30T02:07:12.781Z,12.02
2022-10-30T02:10:05.396Z,12.73
2022-10-30T02:12:51.208Z,8.35
2022-10-30T02:15:38.186Z,12.27
2022-10-30T02:18:24.861Z,10.52
2022-10-30T02:21:10.061Z,9.93
2022-10-30T02:23:57.255Z,18.25
2022-10-30T02:26:43.767Z,15.23
2022-10-30T02:29:29.255Z,15.60
2022-10-30T02:32:14.913Z,8.45
2022-10-30T02:35:00.721Z,13.40
2022-10-30T02:37:48.998Z,16.58
2022-10-30T02:40:34.568Z,13.15
2022-10-30T02:43:19.885Z,16.98
2022-10-30T02:46:05.934Z,20.02
2022-10-30T02:48:52.161Z,20.65
2022-10-30T02:51:37.529Z,9.68
2022-10-30T02:54:22.792Z,16.08
2022-10-30T02:57:09.814Z,13.85
2022-10-30T02:59:56.883Z,17.90
2022-10-30T03:02:42.346Z,12.00
2022-10-30T03:05:28.034Z,10.93
2022-10-30T03:08:13.393Z,15.75
2022-10-30T03:11:04.569Z,7.90
2022-10-30T03:13:50.338Z,13.13
2022-10-30T03:16:37.465Z,26.25
2022-10-30T03:19:23.216Z,21.40
2022-10-30T03:22:10.301Z,17.58
2022-10-30T03:24:57.119Z,13.95
2022-10-30T03:27:42.824Z,12.60
2022-10-30T03:30:28.134Z,10.65
2022-10-30T03:33:13.939Z,23.05
2022-10-30T03:35:59.928Z,12.00
2022-10-30T03:38:45.199Z,20.80
2022-10-30T03:41:35.120Z,12.95
2022-10-30T03:44:21.116Z,11.15
2022-10-30T03:47:07.389Z,16.23
2022-10-30T03:50:03.547Z,14.57
2022-10-30T03:52:49.167Z,9.70
2022-10-30T03:55:34.441Z,10.73
2022-10-30T03:58:20.053Z,19.50
2022-10-30T04:01:07.996Z,15.55
2022-10-30T04:03:57.545Z,14.15
2022-10-30T04:06:44.385Z,19.58
2022-10-30T04:09:29.707Z,12.43
2022-10-30T04:12:15.074Z,16.58
2022-10-30T04:15:00.471Z,11.98
2022-10-30T04:17:51.466Z,17.20
2022-10-30T04:20:37.428Z,7.07
2022-10-30T04:23:23.304Z,14.80
2022-10-30T04:26:09.082Z,14.98
2022-10-30T04:28:57.435Z,14.75
2022-10-30T04:31:43.525Z,18.15
2022-10-30T04:34:28.804Z,14.85
2022-10-30T04:37:14.201Z,11.88
2022-10-30T04:39:59.644Z,15.57
2022-10-30T04:42:47.719Z,10.82
2022-10-30T04:45:34.484Z,11.25
2022-10-30T04:48:21.858Z,7.20
2022-10-30T04:51:07.301Z,11.45
2022-10-30T04:53:54.252Z,11.15
2022-10-30T04:56:40.033Z,13.40
2022-10-30T04:59:26.275Z,10.73
2022-10-30T05:02:13.432Z,8.93
2022-10-30T05:04:59.227Z,6.82
2022-10-30T05:07:44.591Z,3.78
2022-10-30T05:10:30.741Z,2.33
2022-10-30T05:13:16.163Z,0.68
2022-10-30T05:16:01.817Z,2.40
2022-10-30T05:18:47.032Z,0.55
2022-10-30T05:21:32.474Z,0.30
2022-10-30T05:24:18.293Z,1.40
2022-10-30T05:27:03.952Z,5.72
2022-10-30T05:29:51.067Z,2.80
2022-10-30T05:32:36.497Z,0.65
2022-10-30T05:35:22.314Z,2.40
2022-10-30T05:38:07.932Z,6.28
2022-10-30T05:40:53.476Z,1.13
2022-10-30T05:43:38.892Z,2.85
2022-10-30T05:46:24.410Z,4.43
2022-10-30T05:49:11.322Z,1.83
2022-10-30T05:51:56.738Z,7.32
2022-10-30T05:54:41.974Z,3.85
2022-10-30T05:57:33.305Z,0.43
2022-10-30T06:00:19.723Z,0.85
2022-10-30T06:03:08.223Z,0.93
2022-10-30T06:05:55.159Z,5.78
2022-10-30T06:08:41.482Z,3.70
2022-10-30T06:11:50.791Z,3.20
2022-10-30T06:14:40.308Z,1.25
2022-10-30T06:17:26.281Z,2.40
2022-10-30T06:20:19.090Z,4.10
2022-10-30T06:23:23.682Z,0.50
2022-10-30T06:26:15.403Z,3.88
2022-10-30T06:29:03.189Z,1.02
2022-10-30T06:31:49.050Z,3.13
2022-10-30T06:34:35.402Z,1.38
2022-10-30T06:37:21.269Z,2.45
2022-10-30T06:40:09.356Z,0.30
2022-10-30T06:43:13.722Z,1.45
2022-10-30T06:46:02.699Z,3.10
2022-10-30T06:48:49.864Z,0.98
2022-10-30T06:51:36.775Z,4.65
2022-10-30T06:54:22.572Z,1.20
2022-10-30T06:57:28.124Z,3.22
2022-10-30T07:00:33.698Z,1.65
2022-10-30T07:03:37.851Z,1.48
2022-10-30T07:06:23.255Z,3.55
2022-10-30T07:09:08.540Z,2.58
2022-10-30T07:11:56.705Z,2.47
2022-10-30T07:14:57.417Z,2.33
2022-10-30T07:18:03.543Z,5.15
2022-10-30T07:20:58.654Z,3.13
2022-10-30T07:23:44.639Z,2.78
2022-10-30T07:26:56.710Z,2.67
2022-10-30T07:29:53.401Z,3.53
2022-10-30T07:33:03.792Z,5.80
2022-10-30T07:36:04.808Z,7.80
2022-10-30T07:39:10.320Z,6.70
2022-10-30T07:42:11.228Z,3.72
2022-10-30T07:45:15.730Z,4.50
2022-10-30T07:48:32.767Z,5.45
2022-10-30T07:51:23.726Z,4.85
2022-10-30T07:54:09.455Z,7.63
2022-10-30T07:56:54.933Z,8.63
2022-10-30T08:00:01.088Z,1.77
2022-10-30T08:02:59.360Z,9.02
2022-10-30T08:05:55.940Z,5.68
2022-10-30T08:08:47.138Z,8.30
2022-10-30T08:11:40.917Z,5.07
2022-10-30T08:14:26.610Z,4.85
2022-10-30T08:17:13.815Z,6.20
2022-10-30T08:20:00.790Z,6.70
2022-10-30T08:22:54.205Z,4.15
2022-10-30T08:25:42.555Z,6.97
2022-10-30T08:28:31.676Z,5.97
2022-10-30T08:31:19.867Z,7.20
2022-10-30T08:34:20.699Z,4.28
2022-10-30T08:37:10.696Z,4.75
2022-10-30T08:39:56.339Z,4.55
2022-10-30T08:43:04.453Z,10.32
2022-10-30T08:45:51.416Z,11.80
2022-10-30T08:48:39.747Z,10.00
2022-10-30T08:51:25.543Z,5.75
2022-10-30T08:54:10.973Z,9.27
2022-10-30T08:56:56.774Z,11.57
2022-10-30T08:59:43.392Z,8.82
2022-10-30T09:02:42.496Z,5.05
2022-10-30T09:05:48.246Z,6.20
2022-10-30T09:08:36.494Z,7.72
2022-10-30T09:11:40.948Z,10.32
2022-10-30T09:14:26.726Z,4.93
2022-10-30T09:17:12.541Z,5.35
2022-10-30T09:20:02.747Z,7.75
2022-10-30T09:22:54.520Z,7.50
2022-10-30T09:25:40.441Z,4.82
2022-10-30T09:28:50.348Z,7.90
2022-10-30T09:31:54.620Z,12.80
2022-10-30T09:34:43.082Z,3.92
2022-10-30T09:37:40.307Z,3.67
2022-10-30T09:40:49.055Z,8.52
2022-10-30T09:44:00.714Z,9.27
2022-10-30T09:46:58.783Z,11.68
2022-10-30T09:50:01.215Z,6.75
2022-10-30T09:56:15.147Z,6.50
2022-10-30T09:59:41.961Z,8.82
2022-10-30T10:02:53.938Z,6.55
2022-10-30T10:05:44.504Z,5.90
2022-10-30T10:09:01.774Z,9.13
2022-10-30T10:12:13.933Z,12.57
2022-10-30T10:15:01.675Z,6.47
2022-10-30T10:17:47.844Z,9.57
2022-10-30T10:20:42.504Z,8.27
2022-10-30T10:23:36.191Z,7.65
2022-10-30T10:26:53.965Z,8.23
2022-10-30T10:30:11.805Z,5.18
2022-10-30T10:36:46.242Z,13.23
2022-10-30T10:39:56.206Z,11.30
2022-10-30T10:43:02.035Z,6.47
2022-10-30T10:45:57.087Z,4.47
2022-10-30T10:49:01.032Z,6.47
2022-10-30T10:51:54.255Z,3.95
2022-10-30T10:54:45.331Z,6.60
2022-10-30T10:57:37.825Z,11.55
2022-10-30T11:00:24.565Z,7.22
2022-10-30T11:03:18.019Z,5.32
2022-10-30T11:06:27.414Z,8.20
2022-10-30T11:09:21.519Z,6.47
2022-10-30T11:12:07.223Z,9.90
2022-10-30T11:14:52.922Z,8.50
2022-10-30T11:18:03.404Z,11.70
2022-10-30T11:21:03.445Z,4.05
2022-10-30T11:23:49.772Z,3.72
2022-10-30T11:26:35.396Z,7.55
2022-10-30T11:29:27.387Z,5.80
2022-10-30T11:32:20.561Z,6.07
2022-10-30T11:35:09.312Z,8.98
2022-10-30T11:38:18.917Z,6.45
2022-10-30T11:41:04.320Z,6.28
2022-10-30T11:43:50.234Z,3.13
2022-10-30T11:46:36.991Z,11.75
2022-10-30T11:49:51.533Z,6.65
2022-10-30T11:52:41.615Z,5.72
2022-10-30T11:55:40.069Z,8.38
2022-10-30T11:58:33.114Z,4.07
2022-10-30T12:01:30.107Z,8.75
2022-10-30T12:04:27.490Z,5.38
2022-10-30T12:07:25.467Z,2.88
2022-10-30T12:10:28.532Z,3.30
2022-10-30T12:13:19.597Z,7.03
2022-10-30T12:16:14.513Z,4.32
2022-10-30T12:19:06.956Z,2.15
2022-10-30T12:21:54.743Z,5.80
2022-10-30T12:24:43.696Z,3.47
2022-10-30T12:27:32.152Z,5.22
2022-10-30T12:30:21.139Z,7.25
2022-10-30T12:33:16.376Z,5.47
2022-10-30T12:36:10.221Z,6.35
2022-10-30T12:39:05.415Z,2.92
2022-10-30T12:41:56.705Z,4.22
2022-10-30T12:45:05.499Z,0.73
2022-10-30T12:47:59.836Z,3.33
2022-10-30T12:50:52.637Z,1.90
2022-10-30T12:53:52.963Z,6.00
2022-10-30T12:56:43.226Z,7.85
2022-10-30T12:59:36.083Z,4.32
2022-10-30T13:02:53.841Z,6.95
2022-10-30T13:05:51.644Z,5.00
2022-10-30T13:08:44.961Z,4.35
2022-10-30T13:11:47.922Z,6.80
2022-10-30T13:14:42.692Z,3.55
2022-10-30T13:17:29.114Z,4.80
2022-10-30T13:20:15.658Z,4.90
2022-10-30T13:23:25.641Z,3.50
2022-10-30T13:26:52.050Z,4.88
2022-10-30T13:29:53.446Z,6.75
2022-10-30T13:32:50.050Z,8.35
2022-10-30T13:36:02.570Z,6.82
2022-10-30T13:42:03.841Z,3.58
2022-10-30T13:45:26.435Z,3.00
2022-10-30T13:54:04.647Z,4.97
2022-10-30T13:56:51.657Z,2.22
2022-10-30T13:59:40.312Z,3.53
2022-10-30T14:02:54.021Z,7.05
2022-10-30T14:05:56.683Z,5.32
2022-10-30T14:09:00.242Z,6.68
2022-10-30T14:11:45.947Z,2.65
2022-10-30T14:14:32.260Z,5.75
2022-10-30T14:17:18.324Z,4.35
2022-10-30T14:20:12.572Z,3.33
2022-10-30T14:23:12.599Z,4.32
2022-10-30T14:26:07.057Z,8.05
2022-10-30T14:28:55.446Z,2.88
2022-10-30T14:31:40.859Z,2.83
2022-10-30T14:34:53.271Z,4.30
2022-10-30T14:37:38.531Z,4.10
2022-10-30T14:40:37.331Z,3.05
2022-10-30T14:43:37.268Z,2.80
2022-10-30T14:46:37.523Z,3.78
2022-10-30T14:49:48.619Z,1.35
2022-10-30T14:52:49.158Z,2.17
2022-10-30T14:55:53.253Z,1.70
2022-10-30T14:58:39.173Z,3.15
2022-10-30T15:01:32.229Z,4.55
2022-10-30T15:04:28.053Z,2.45
2022-10-30T15:07:38.426Z,2.47
2022-10-30T15:10:34.291Z,2.30
2022-10-30T15:13:22.658Z,1.85
2022-10-30T15:16:09.393Z,2.33
2022-10-30T15:19:07.224Z,7.25
2022-10-30T15:21:55.210Z,4.40
2022-10-30T15:24:40.790Z,5.53
2022-10-30T15:27:27.044Z,0.93
2022-10-30T15:30:17.813Z,2.78
2022-10-30T15:33:03.724Z,2.22
2022-10-30T15:35:49.673Z,0.30
2022-10-30T15:38:35.036Z,3.40
2022-10-30T15:41:21.087Z,2.70
2022-10-30T15:44:06.835Z,3.22
2022-10-30T15:46:54.766Z,2.33
2022-10-30T15:49:43.224Z,3.90
2022-10-30T15:52:40.412Z,1.60
2022-10-30T15:55:29.406Z,3.42
2022-10-30T15:58:20.939Z,3.05
2022-10-30T16:01:06.234Z,8.73
2022-10-30T16:03:53.665Z,4.72
2022-10-30T16:06:39.355Z,3.85
2022-10-30T16:09:26.591Z,3.72
2022-10-30T16:12:12.944Z,9.10
2022-10-30T16:15:06.122Z,6.82
2022-10-30T16:18:08.677Z,5.03
2022-10-30T16:20:56.787Z,1.77
2022-10-30T16:23:48.751Z,1.63
2022-10-30T16:26:37.201Z,2.65
2022-10-30T16:29:27.353Z,5.00
2022-10-30T16:32:16.439Z,3.75
2022-10-30T16:35:04.626Z,5.07
2022-10-30T16:37:50.906Z,7.35
2022-10-30T16:40:36.857Z,7.60
2022-10-30T16:43:31.023Z,4.45
2022-10-30T16:46:16.394Z,4.25
2022-10-30T16:49:06.773Z,2.40
2022-10-30T16:51:58.447Z,5.05
2022-10-30T16:54:53.599Z,6.90
2022-10-30T16:57:44.142Z,7.85
2022-10-30T17:00:34.018Z,12.25
2022-10-30T17:03:25.213Z,4.35
2022-10-30T17:06:36.538Z,6.65
2022-10-30T17:09:26.967Z,7.00
2022-10-30T17:12:25.814Z,5.93
2022-10-30T17:15:16.328Z,11.93
2022-10-30T17:18:16.302Z,11.52
2022-10-30T17:21:10.124Z,14.00
2022-10-30T17:24:00.601Z,10.82
2022-10-30T17:26:55.799Z,13.07
2022-10-30T17:29:41.009Z,12.07
2022-10-30T17:32:29.448Z,10.90
2022-10-30T17:35:17.156Z,10.85
2022-10-30T17:38:03.074Z,9.45
2022-10-30T17:40:48.982Z,15.82
2022-10-30T17:43:47.991Z,18.10
2022-10-30T17:46:34.169Z,14.65
2022-10-30T17:49:31.986Z,13.25
2022-10-30T17:52:21.607Z,16.88
2022-10-30T17:55:30.666Z,10.77
2022-10-30T17:58:16.008Z,11.40
2022-10-30T18:01:01.755Z,11.40
2022-10-30T18:03:51.792Z,13.13
2022-10-30T18:06:37.347Z,17.52
2022-10-30T18:09:22.863Z,13.02
2022-10-30T18:12:13.358Z,13.55
2022-10-30T18:14:59.011Z,10.00
2022-10-30T18:17:44.736Z,16.65
2022-10-30T18:20:30.844Z,10.88
2022-10-30T18:26:28.028Z,10.32
2022-10-30T18:29:13.686Z,11.75
2022-10-30T18:31:59.476Z,8.55
2022-10-30T18:34:44.919Z,13.43
2022-10-30T18:37:30.492Z,7.30
2022-10-30T18:40:18.940Z,15.90
2022-10-30T18:43:05.906Z,14.65
2022-10-30T18:45:51.498Z,23.70
2022-10-30T18:48:37.413Z,6.68
2022-10-30T18:51:25.775Z,8.65
2022-10-30T18:54:15.394Z,17.77
2022-10-30T18:57:00.696Z,16.10
2022-10-30T18:59:45.924Z,11.40
2022-10-30T19:02:31.436Z,16.48
2022-10-30T19:05:28.895Z,16.42
2022-10-30T19:08:15.038Z,8.73
2022-10-30T19:11:00.432Z,11.07
2022-10-30T19:13:47.111Z,14.23
2022-10-30T19:16:33.532Z,5.75
2022-10-30T19:19:18.897Z,17.77
2022-10-30T19:22:04.326Z,11.80
2022-10-30T19:24:49.710Z,19.73
2022-10-30T19:27:35.172Z,41.63
2022-10-30T19:30:21.715Z,15.18
2022-10-30T19:33:09.106Z,70.95
2022-10-30T19:36:04.886Z,81.55
2022-10-30T19:38:50.297Z,35.20
2022-10-30T19:41:36.460Z,19.88
2022-10-30T19:44:22.038Z,15.48
2022-10-30T19:47:10.797Z,11.07
2022-10-30T19:49:56.398Z,19.08
2022-10-30T19:52:41.717Z,9.00
2022-10-30T19:55:32.883Z,20.13
2022-10-30T19:58:22.155Z,7.22
2022-10-30T20:01:13.642Z,12.68
2022-10-30T20:03:59.524Z,18.42
2022-10-30T20:06:44.814Z,11.85
2022-10-30T20:09:31.123Z,11.13
2022-10-30T20:12:16.557Z,20.00
2022-10-30T20:15:01.813Z,13.52
2022-10-30T20:17:47.701Z,16.23
2022-10-30T20:20:34.855Z,8.73
2022-10-30T20:23:21.651Z,13.35
2022-10-30T20:26:24.338Z,18.45
2022-10-30T20:29:10.315Z,10.48
2022-10-30T20:31:55.634Z,12.07
2022-10-30T20:34:41.275Z,17.38
2022-10-30T20:37:26.654Z,14.90
2022-10-30T20:40:17.205Z,15.10
2022-10-30T20:43:03.397Z,10.60
2022-10-30T20:45:48.790Z,17.17
2022-10-30T20:48:34.191Z,13.00
2022-10-30T20:51:19.905Z,14.35
2022-10-30T20:54:05.411Z,14.10
2022-10-30T20:56:50.948Z,15.05
2022-10-30T20:59:36.370Z,8.35
2022-10-30T21:02:22.214Z,10.60
2022-10-30T21:05:11.804Z,9.05
2022-10-30T21:08:09.172Z,12.40
2022-10-30T21:11:01.706Z,10.98
2022-10-30T21:13:47.492Z,7.10
2022-10-30T21:16:33.299Z,16.52
2022-10-30T21:19:18.760Z,15.38
2022-10-30T21:22:04.685Z,11.73
2022-10-30T21:24:50.649Z,17.80
2022-10-30T21:27:36.314Z,10.88
2022-10-30T21:30:21.650Z,21.05
2022-10-30T21:33:07.038Z,24.85
2022-10-30T21:35:52.375Z,11.88
2022-10-30T21:38:37.707Z,14.27
2022-10-30T21:41:25.067Z,15.07
2022-10-30T21:44:10.349Z,15.32
2022-10-30T21:46:55.661Z,9.10
2022-10-30T21:49:41.414Z,12.07
2022-10-30T21:52:26.707Z,10.10
2022-10-30T21:55:12.164Z,8.77
2022-10-30T21:57:57.903Z,9.52
2022-10-30T22:00:43.504Z,12.02
2022-10-30T22:03:29.558Z,9.35
2022-10-30T22:06:17.220Z,19.45
2022-10-30T22:09:02.893Z,19.77
2022-10-30T22:11:48.293Z,15.15
2022-10-30T22:14:33.749Z,13.73
2022-10-30T22:17:19.175Z,11.90
2022-10-30T22:20:04.930Z,20.15
2022-10-30T22:22:50.252Z,20.08
2022-10-30T22:25:35.791Z,16.58
2022-10-30T22:28:21.414Z,21.48
2022-10-30T22:31:09.973Z,31.90
2022-10-30T22:33:56.151Z,21.95
2022-10-30T22:36:41.551Z,17.63
2022-10-30T22:39:27.011Z,22.48
2022-10-30T22:42:12.289Z,18.95
2022-10-30T22:44:57.546Z,17.02
2022-10-30T22:47:43.016Z,17.70
2022-10-30T22:50:28.386Z,8.95
2022-10-30T22:53:13.704Z,20.42
2022-10-30T22:55:59.928Z,14.98
2022-10-30T22:58:47.284Z,17.58
2022-10-30T23:01:34.786Z,14.02
2022-10-30T23:04:20.234Z,20.55
2022-10-30T23:07:05.696Z,13.77
2022-10-30T23:09:51.090Z,11.52
2022-10-30T23:12:36.329Z,13.07
2022-10-30T23:15:22.369Z,14.50
2022-10-30T23:18:07.722Z,13.93
2022-10-30T23:20:58.664Z,10.57
2022-10-30T23:23:45.014Z,14.45
2022-10-30T23:26:33.195Z,5.82
2022-10-30T23:29:19.516Z,18.05
2022-10-30T23:32:06.693Z,6.70
2022-10-30T23:34:52.269Z,10.18
2022-10-30T23:37:37.631Z,16.92
2022-10-30T23:40:23.095Z,11.40
2022-10-30T23:43:08.561Z,11.52
2022-10-30T23:45:54.179Z,12.23
2022-10-30T23:48:39.771Z,8.35
2022-10-30T23:51:25.630Z,11.50
2022-10-30T23:54:11.129Z,9.55
2022-10-30T23:56:56.689Z,7.15
2022-10-30T23:59:42.078Z,8.75
